Weather observations for the past three days for
Chillicothe Ross County Airport
Imperial (Metric)
Date Time (edt) Wind (mph) Vis. (mi.) Weather Sky Cond. Temperature (ºF) Relative Humidity Wind Chill (°F) Heat Index (°F) Pressure Precipitation (in)
Air Dwpt 6 hour altimeter (in) sea level (mb) 1 hr 3 hr 6 hr
Max. Min.
10 06:51 NW 6 10.00 Fair CLR 55.4 50 82% 29.93 0.0
10 06:31 NW 5 10.00 Fair CLR 55.4 53.6 94% 29.92 0.0
10 06:11 NW 3 10.00 Fair CLR 53.6 53.6 100% 29.91 0.0
10 05:51 Calm 10.00 Fair CLR 53.6 53.6 100% 29.91 0.0
10 05:32 Calm 10.00 Fair CLR 53.6 53.6 100% 29.89 0.0
10 05:13 Calm 10.00 Fair CLR 53.6 51.8 94% 29.89 0.0
10 04:50 SW 3 10.00 Fair CLR 53.6 50 88% 29.88 0.0
10 04:31 Calm 10.00 Fair CLR 53.6 50 88% 29.86 0.0
10 04:11 SW 3 10.00 Fair CLR 57.2 51.8 82% 29.86 0.0
10 03:53 SW 3 10.00 Fair CLR 55.4 51.8 88% 29.86 0.0
10 03:33 W 3 10.00 Fair CLR 55.4 51.8 88% 29.86 0.0
10 03:14 Calm 10.00 Fair CLR 57.2 50 77% 29.86 0.0
10 02:51 W 5 10.00 Partly Cloudy SCT110 60.8 50 68% 29.86 0.0
10 02:32 N 12 10.00 Partly Cloudy SCT110 60.8 50 68% 29.87 0.0
10 02:11 SW 6 10.00 Fair CLR 60.8 50 68% 29.85 0.0
10 01:52 SW 6 10.00 Fair CLR 60.8 50 68% 29.85 0.0
10 01:31 SW 7 10.00 Mostly Cloudy BKN010 62.6 50 64% 29.85 0.0
10 01:12 SW 7 10.00 Mostly Cloudy BKN010 60.8 50 68% 29.85 0.0
10 00:52 SW 6 10.00 Fair CLR 62.6 50 64% 29.85 0.0
10 00:32 SW 8 10.00 Fair CLR 62.6 50 64% 29.84 0.0
10 00:13 SW 7 10.00 Fair CLR 62.6 50 64% 29.85 0.0
09 23:55 SW 8 10.00 Fair CLR 62.6 50 64% 0 0.0
09 23:34 S 9 10.00 Fair CLR 62.6 50 64% 29.84 0.0
09 23:15 SW 9 10.00 Fair CLR 62.6 50 64% 29.84 0.0
09 22:55 SW 8 10.00 Fair CLR 62.6 50 64% 29.84 0.0
09 22:30 S 8 10.00 Fair CLR 0 0 0% 29.83 0.0
09 22:10 S 6 10.00 Fair CLR 62.6 48.2 60% 29.83 0.0
09 21:53 S 6 10.00 Fair CLR 62.6 48.2 60% 29.83 0.0
09 21:36 S 5 10.00 Fair CLR 62.6 46.4 56% 0 0.0
09 21:15 S 3 10.00 Fair CLR 64.4 44.6 49% 29.81 0.0
09 20:54 S 3 10.00 Fair CLR 66.2 44.6 46% 29.8 0.0
09 20:33 SW 5 10.00 Fair CLR 66.2 44.6 46% 29.8 0.0
09 20:03 SW 6 10.00 Fair CLR 68 44.6 43% 29.78 0.0
09 19:36 S 6 10.00 Fair CLR 69.8 44.6 40% 29.77 0.0
09 19:17 SW 7 10.00 Fair CLR 71.6 44.6 38% 29.77 0.0
09 18:57 SW 9 10.00 Fair CLR 71.6 42.8 36% 29.76 0.0
09 18:31 SW 12 10.00 Fair CLR 71.6 41 33% 29.77 0.0
09 18:11 SW 15 10.00 Fair CLR 73.4 44.6 36% 29.77 0.0
09 17:52 SW 12 10.00 Fair CLR 73.4 44.6 36% 29.77 0.0
09 17:31 SW 15 10.00 Fair CLR 73.4 44.6 36% 29.77 0.0
09 17:13 S 9 10.00 Fair CLR 73.4 44.6 36% 29.78 0.0
09 16:51 SW 9 10.00 Fair CLR 71.6 42.8 36% 29.78 0.0
09 16:35 SW 10 10.00 Fair CLR 71.6 44.6 38% 29.78 0.0
09 16:14 SW 9 10.00 Fair CLR 71.6 44.6 38% 0 0.0
09 15:53 SW 9 10.00 Fair CLR 71.6 44.6 38% 29.79 0.0
09 15:35 W 15 10.00 Fair CLR 71.6 46.4 41% 29.8 0.0
09 15:10 W 10 10.00 Partly Cloudy SCT048 SCT060 71.6 46.4 41% 29.8 0.0
09 14:49 SW 10 10.00 Partly Cloudy SCT048 69.8 44.6 40% 29.8 0.0
09 14:30 Calm 10.00 Partly Cloudy SCT047 SCT050 69.8 46.4 43% 0 0.0
09 13:58 W 8 10.00 Mostly Cloudy SCT045 BKN055 66.2 48.2 52% 29.81 0.0
09 13:32 SW 9 10.00 Mostly Cloudy SCT044 SCT050 BKN055 68 48.2 49% 29.81 0.0
09 13:15 SW 7 10.00 Mostly Cloudy SCT041 SCT049 BKN055 66.2 48.2 52% 0 0.0
09 12:49 SW 8 10.00 Fair CLR 66.2 48.2 52% 29.82 0.0
09 12:30 S 5 10.00 Fair CLR 64.4 48.2 56% 29.82 0.0
09 12:09 S 7 10.00 Fair CLR 64.4 48.2 56% 29.81 0.0
09 11:55 S 9 10.00 Fair CLR 64.4 50 60% 0 0.0
09 11:19 S 9 10.00 Fair CLR 60.8 51.8 72% 29.8 0.0
09 10:51 S 7 10.00 Fair CLR 59 55.4 88% 29.8 0.0
09 10:31 S 7 10.00 Fair CLR 55.4 55.4 100% 29.81 0.0
09 10:11 S 6 10.00 Fair CLR 53.6 53.6 100% 29.8 0.0
09 09:53 S 7 10.00 Overcast OVC100 53.6 53.6 100% 29.8 0.0
09 09:36 S 5 10.00 Overcast SCT005 SCT080 OVC100 53.6 53.6 100% 0 0.0
09 09:09 S 5 10.00 Overcast OVC090 51.8 51.8 100% 29.81 0.0
09 08:49 S 5 7.00 Overcast OVC100 51.8 51.8 100% 29.8 0.0
09 08:29 S 5 7.00 Overcast SCT003 SCT075 OVC090 51.8 51.8 100% 29.81 0.0
09 08:09 S 5 7.00 Mostly Cloudy SCT002 SCT040 BKN080 51.8 51.8 100% 29.82 0.0
09 07:49 S 6 7.00 Overcast OVC070 51.8 51.8 100% 29.82 0.0
09 07:29 S 6 5.00 Overcast OVC070 51.8 51.8 100% 29.82 0.0
09 07:09 S 3 4.00 Overcast OVC070 51.8 51.8 100% 29.82 0.0
09 06:49 Calm 4.00 Overcast OVC070 51.8 51.8 100% 29.81 0.0
09 06:29 SE 3 7.00 Overcast OVC070 51.8 51.8 100% 29.82 0.0
09 06:11 Calm 7.00 Overcast OVC070 51.8 51.8 100% 29.83 0.0
09 05:51 S 3 5.00 Overcast OVC070 51.8 51.8 100% 29.83 0.0
09 05:31 S 3 7.00 Overcast OVC070 51.8 51.8 100% 29.83 0.0
09 05:16 S 3 7.00 Overcast OVC070 51.8 51.8 100% 29.83 0.0
09 04:57 S 3 7.00 Overcast OVC070 51.8 51.8 100% 29.83 0.0
09 04:33 Calm 10.00 Overcast OVC070 51.8 51.8 100% 29.83 0.0
09 04:13 Calm 7.00 Overcast OVC070 51.8 51.8 100% 29.84 0.0
09 03:53 W 3 7.00 Overcast OVC070 51.8 51.8 100% 29.84 0.0
09 03:33 W 3 10.00 Overcast BKN070 OVC080 51.8 51.8 100% 29.84 0.0
09 03:17 Calm 10.00 Overcast OVC080 51.8 51.8 100% 29.83 0.0
09 02:53 Calm 10.00 Overcast OVC070 51.8 51.8 100% 29.83 0.0
09 02:33 Calm 10.00 Overcast OVC070 53.6 53.6 100% 29.83 0.0
09 02:13 Calm 10.00 Overcast OVC070 53.6 53.6 100% 29.84 0.0
09 01:56 Calm 10.00 Overcast OVC070 53.6 51.8 94% 29.85 0.0
09 01:38 SW 3 10.00 Overcast BKN070 OVC095 53.6 51.8 94% 29.85 0.0
09 01:14 Calm 10.00 Overcast OVC095 53.6 50 88% 29.84 0.0
09 00:54 Calm 10.00 Overcast BKN070 OVC085 55.4 50 82% 29.85 0.0
09 00:34 SW 3 10.00 Overcast OVC070 0 0 0% 29.86 0.0
09 00:07 Calm 10.00 Overcast OVC075 57.2 44.6 63% 29.85 0.0
08 23:35 NW 6 10.00 Overcast SCT075 OVC085 59 42.8 55% 29.85 0.0
08 23:14 W 5 10.00 Overcast OVC080 57.2 44.6 63% 29.85 0.0
08 22:43 Calm 10.00 Overcast OVC080 57.2 42.8 59% 29.85 0.0
08 22:16 Calm 10.00 Overcast OVC080 59 42.8 55% 29.85 0.0
08 21:56 Calm 10.00 Overcast OVC080 60.8 41 48% 29.85 0.0
08 21:38 Calm 10.00 Overcast OVC090 62.6 37.4 39% 29.85 0.0
08 21:14 SW 10 10.00 Overcast SCT080 OVC095 60.8 39.2 45% 29.85 0.0
08 20:54 SW 7 10.00 Overcast OVC080 62.6 37.4 39% 29.85 0.0
08 20:37 SW 3 10.00 Overcast OVC080 62.6 37.4 39% 29.84 0.0
08 20:15 SW 5 10.00 Overcast OVC080 62.6 37.4 39% 29.85 0.0
08 19:32 SW 6 10.00 Overcast BKN080 OVC090 64.4 35.6 34% 29.84 0.0
08 19:15 S 5 10.00 Overcast SCT080 OVC100 64.4 35.6 34% 29.83 0.0
08 18:54 SW 6 10.00 Overcast SCT080 OVC090 64.4 35.6 34% 29.84 0.0
08 18:33 SW 6 10.00 Overcast OVC090 66.2 35.6 32% 29.84 0.0
08 18:14 SW 10 10.00 Overcast OVC090 66.2 35.6 32% 29.83 0.0
08 17:56 SW 10 10.00 Overcast OVC090 66.2 35.6 32% 29.83 0.0
08 17:35 SW 5 10.00 Overcast OVC090 66.2 35.6 32% 29.84 0.0
08 17:15 SW 9 10.00 Overcast OVC080 66.2 33.8 30% 29.84 0.0
08 16:56 SW 10 10.00 Overcast OVC080 66.2 35.6 32% 29.85 0.0
08 15:59 SW 16 10.00 Mostly Cloudy SCT080 SCT100 BKN120 71.6 33.8 25% 29.86 0.0
08 15:38 SW 18 10.00 Mostly Cloudy SCT080 BKN110 71.6 69.8 94% 29.87 0.0
08 15:10 SW 13 10.00 Overcast SCT075 OVC110 68 33.8 28% 29.88 0.0
08 14:52 SW 15 10.00 Overcast SCT075 SCT090 OVC110 68 33.8 28% 29.89 0.0
08 14:33 SW 17 10.00 Mostly Cloudy SCT075 SCT090 BKN120 69.8 33.8 27% 29.9 0.0
08 14:09 SW 8 10.00 Partly Cloudy SCT075 SCT010 69.8 33.8 27% 29.9 0.0
08 13:49 W 13 10.00 Fair CLR 69.8 33.8 27% 29.91 0.0
08 13:29 W 17 10.00 Fair CLR 68 32 26% 29.93 0.0
08 13:09 W 16 10.00 Fair CLR 68 33.8 28% 29.93 0.0
08 12:49 W 14 10.00 Mostly Cloudy BKN010 68 35.6 30% 29.94 0.0
08 12:30 W 10 10.00 Partly Cloudy SCT010 68 35.6 30% 29.95 0.0
08 11:52 SW 14 10.00 Partly Cloudy SCT100 66.2 35.6 32% 29.97 0.0
08 11:31 SW 17 10.00 Fair CLR 64.4 35.6 34% 29.98 0.0
08 11:11 SW 14 10.00 Fair CLR 62.6 35.6 37% 0 0.0
08 10:51 W 10 10.00 Mostly Cloudy BKN080 60.8 33.8 36% 29.99 0.0
08 10:32 S 3 10.00 Overcast BKN075 OVC090 57.2 35.6 44% 29.99 0.0
08 09:52 SW 7 10.00 Mostly Cloudy BKN065 BKN100 55.4 35.6 47% 30 0.0
08 09:32 SW 7 10.00 Partly Cloudy SCT010 55.4 35.6 47% 30 0.0
08 09:15 S 5 10.00 Mostly Cloudy BKN010 53.6 35.6 51% 30 0.0
08 08:53 S 5 10.00 Mostly Cloudy BKN110 51.8 35.6 54% 30 0.0
08 08:31 S 7 10.00 Partly Cloudy SCT120 50 37.4 62% 48 30 0.0
08 08:13 S 5 10.00 Partly Cloudy SCT120 46.4 37.4 71% 45 30 0.0
08 07:32 S 3 10.00 Partly Cloudy SCT080 SCT012 42.8 37.4 81% 29.99 0.0
08 07:13 S 3 10.00 Partly Cloudy SCT075 41 37.4 87% 29.98 0.0
08 06:53 S 5 10.00 Partly Cloudy SCT075 41 37.4 87% 38 29.98 0.0
08 06:34 Calm 10.00 Partly Cloudy SCT075 39.2 37.4 93% 29.98 0.0
08 06:14 S 3 10.00 Fair CLR 39.2 37.4 93% 29.98 0.0
08 05:55 Calm 10.00 Fair CLR 37.4 35.6 93% 29.98 0.0
08 05:20 Calm 10.00 Fair CLR 39.2 37.4 93% 29.98 0.0
08 04:53 Calm 10.00 Fair CLR 39.2 35.6 87% 29.99 0.0
08 04:37 Calm 10.00 Fair CLR 39.2 35.6 87% 29.97 0.0
08 04:17 Calm 10.00 Fair CLR 39.2 35.6 87% 29.97 0.0
08 03:59 Calm 10.00 Fair CLR 39.2 35.6 87% 0 0.0
08 03:31 S 3 10.00 Fair CLR 41 35.6 81% 29.97 0.0
08 03:13 S 5 10.00 Fair CLR 41 35.6 81% 38 29.97 0.0
08 02:53 S 3 10.00 Fair CLR 41 35.6 81% 29.97 0.0
08 02:33 S 5 10.00 Fair CLR 41 35.6 81% 38 29.98 0.0
08 02:14 Calm 10.00 Fair CLR 41 35.6 81% 29.98 0.0
08 00:53 Calm 10.00 Fair CLR 42.8 35.6 76% 29.99 0.0
08 00:36 Calm 10.00 Fair CLR 42.8 33.8 71% 29.99 0.0
08 00:13 S 3 10.00 Fair CLR 42.8 35.6 76% 29.99 0.0
07 23:52 SW 3 10.00 Fair CLR 44.6 35.6 71% 29.98 0.0
07 23:31 S 3 10.00 Fair CLR 42.8 35.6 76% 29.98 0.0
07 23:12 Calm 10.00 Fair CLR 41 35.6 81% 29.98 0.0
07 22:53 Calm 10.00 Fair CLR 41 37.4 87% 0 0.0
07 22:32 SW 3 10.00 Fair CLR 42.8 37.4 81% 29.98 0.0
07 22:12 SW 3 10.00 Fair CLR 44.6 37.4 76% 29.98 0.0
07 21:52 SW 3 10.00 Fair CLR 44.6 37.4 76% 29.98 0.0
07 21:32 SW 3 10.00 Fair CLR 46.4 37.4 71% 29.98 0.0
07 21:15 SW 3 10.00 Fair CLR 44.6 37.4 76% 29.98 0.0
07 20:54 SW 3 10.00 Fair CLR 48.2 33.8 58% 29.97 0.0
07 20:33 Calm 10.00 Fair CLR 50 33.8 54% 29.97 0.0
07 20:00 NW 3 10.00 Fair CLR 53.6 30.2 41% 29.96 0.0
07 19:29 NW 6 10.00 Fair CLR 57.2 26.6 31% 29.96 0.0
07 19:11 NW 7 10.00 Fair CLR 57.2 26.6 31% 29.96 0.0
07 18:51 NW 9 10.00 Partly Cloudy SCT070 57.2 26.6 31% 29.96 0.0
07 18:34 NW 10 10.00 Partly Cloudy SCT070 57.2 26.6 31% 29.96 0.0
07 18:12 NW 12 10.00 Partly Cloudy SCT070 59 26.6 29% 29.96 0.0
07 17:53 NW 16 10.00 Fair CLR 59 26.6 29% 29.96 0.0
07 17:32 NW 13 10.00 Fair CLR 59 26.6 29% 29.96 0.0
07 17:15 NW 15 10.00 Partly Cloudy SCT070 59 26.6 29% 29.95 0.0
07 16:56 NW 9 10.00 Fair CLR 59 26.6 29% 29.95 0.0
07 16:35 NW 15 10.00 Fair CLR 59 28.4 31% 29.94 0.0
07 16:17 N 16 10.00 Partly Cloudy SCT065 59 28.4 31% 29.94 0.0
07 15:58 NW 15 10.00 Partly Cloudy SCT065 59 26.6 29% 29.95 0.0
07 15:39 W 12 10.00 Partly Cloudy SCT065 60.8 28.4 29% 29.95 0.0
07 15:22 NW 10 10.00 Partly Cloudy SCT065 60.8 28.4 29% 29.95 0.0
07 14:57 NW 12 10.00 Fair CLR 59 28.4 31% 29.95 0.0
07 14:39 NW 12 10.00 Fair CLR 59 26.6 29% 29.95 0.0
07 14:19 NW 13 10.00 Fair CLR 59 26.6 29% 29.96 0.0
07 13:55 NW 15 10.00 Fair CLR 57.2 28.4 33% 29.96 0.0
07 13:36 NW 10 10.00 Fair CLR 57.2 26.6 31% 29.97 0.0
07 13:15 N 13 10.00 Fair CLR 57.2 26.6 31% 29.98 0.0
07 12:59 W 14 10.00 Fair CLR 57.2 30.2 36% 29.98 0.0
07 12:39 W 15 10.00 Fair CLR 57.2 28.4 33% 29.98 0.0
07 12:18 W 12 10.00 Fair CLR 57.2 28.4 33% 29.98 0.0
07 11:58 W 16 10.00 Fair CLR 55.4 30.2 38% 29.99 0.0
07 11:38 NW 12 10.00 Fair CLR 55.4 30.2 38% 29.98 0.0
07 11:18 NW 14 10.00 Fair CLR 55.4 32 41% 29.98 0.0
07 10:57 W 9 10.00 Fair CLR 55.4 32 41% 29.98 0.0
07 10:40 NW 12 10.00 Fair CLR 55.4 33.8 44% 29.98 0.0
07 10:22 W 12 10.00 Fair CLR 53.6 32 44% 29.98 0.0
07 10:03 W 6 10.00 Fair CLR 51.8 33.8 50% 29.98 0.0
07 09:36 NW 7 10.00 Fair CLR 51.8 35.6 54% 29.99 0.0
07 09:18 W 8 10.00 Fair CLR 50 33.8 54% 47 29.99 0.0
07 08:55 NW 8 10.00 Fair CLR 50 35.6 58% 47 30 0.0
07 08:36 NW 8 10.00 Fair CLR 48.2 37.4 66% 45 30 0.0
07 08:14 NW 7 10.00 Fair CLR 46.4 37.4 71% 43 30 0.0
07 07:54 NW 8 10.00 Fair CLR 46.4 39.2 76% 43 30 0.0
07 07:38 NW 6 10.00 Fair CLR 44.6 42.8 93% 42 29.99 0.0
Date Time (edt) Wind (mph) Vis. (mi.) Weather Sky Cond. Air Dwpt Max. Min. Relative Humidity Wind Chill (°F) Heat Index (°F) altimeter (in) sea level (mb) 1 hr 3 hr 6 hr
6 hour
Temperature (ºF) Pressure Precipitation (in)